sensor_id;sensor_type;location;lat;lon;timestamp;temperature;humidity
32600;DHT22;19277;51.778;7.912;2023-04-09T00:00:35;22.10;69.30
32600;DHT22;19277;51.778;7.912;2023-04-09T00:03:01;22.10;69.30
32600;DHT22;19277;51.778;7.912;2023-04-09T00:05:26;22.10;69.30
32600;DHT22;19277;51.778;7.912;2023-04-09T00:07:52;22.10;69.20
32600;DHT22;19277;51.778;7.912;2023-04-09T00:10:18;22.10;69.30
32600;DHT22;19277;51.778;7.912;2023-04-09T00:12:43;22.10;69.30
32600;DHT22;19277;51.778;7.912;2023-04-09T00:15:09;22.20;69.30
32600;DHT22;19277;51.778;7.912;2023-04-09T00:17:35;22.10;69.30
32600;DHT22;19277;51.778;7.912;2023-04-09T00:20:01;22.10;69.30
32600;DHT22;19277;51.778;7.912;2023-04-09T00:22:26;22.10;69.30
32600;DHT22;19277;51.778;7.912;2023-04-09T00:24:52;22.10;69.40
32600;DHT22;19277;51.778;7.912;2023-04-09T00:27:17;22.10;69.40
32600;DHT22;19277;51.778;7.912;2023-04-09T00:29:43;22.10;69.40
32600;DHT22;19277;51.778;7.912;2023-04-09T00:32:09;22.10;69.40
32600;DHT22;19277;51.778;7.912;2023-04-09T00:34:34;22.10;69.40
32600;DHT22;19277;51.778;7.912;2023-04-09T00:37:00;22.10;69.40
32600;DHT22;19277;51.778;7.912;2023-04-09T00:39:26;22.10;69.40
32600;DHT22;19277;51.778;7.912;2023-04-09T00:41:56;22.10;69.40
32600;DHT22;19277;51.778;7.912;2023-04-09T00:44:22;22.10;69.40
32600;DHT22;19277;51.778;7.912;2023-04-09T00:46:47;22.10;69.50
32600;DHT22;19277;51.778;7.912;2023-04-09T00:49:13;22.10;69.50
32600;DHT22;19277;51.778;7.912;2023-04-09T00:51:39;22.10;69.40
32600;DHT22;19277;51.778;7.912;2023-04-09T00:54:06;22.10;69.50
32600;DHT22;19277;51.778;7.912;2023-04-09T00:56:32;22.10;69.50
32600;DHT22;19277;51.778;7.912;2023-04-09T00:58:58;22.10;69.50
32600;DHT22;19277;51.778;7.912;2023-04-09T01:01:24;22.10;69.50
32600;DHT22;19277;51.778;7.912;2023-04-09T01:03:50;22.10;69.50
32600;DHT22;19277;51.778;7.912;2023-04-09T01:06:24;22.10;69.60
32600;DHT22;19277;51.778;7.912;2023-04-09T01:09:04;22.10;69.60
32600;DHT22;19277;51.778;7.912;2023-04-09T01:16:34;22.10;69.70
32600;DHT22;19277;51.778;7.912;2023-04-09T01:21:47;22.10;69.70
32600;DHT22;19277;51.778;7.912;2023-04-09T01:26:57;22.10;69.80
32600;DHT22;19277;51.778;7.912;2023-04-09T01:29:24;22.10;69.90
32600;DHT22;19277;51.778;7.912;2023-04-09T01:31:51;22.10;69.80
32600;DHT22;19277;51.778;7.912;2023-04-09T01:34:19;22.00;69.80
32600;DHT22;19277;51.778;7.912;2023-04-09T01:36:57;22.00;69.80
32600;DHT22;19277;51.778;7.912;2023-04-09T01:39:23;22.00;69.80
32600;DHT22;19277;51.778;7.912;2023-04-09T01:41:49;22.00;69.80
32600;DHT22;19277;51.778;7.912;2023-04-09T01:44:16;22.10;69.90
32600;DHT22;19277;51.778;7.912;2023-04-09T01:46:42;22.00;69.80
32600;DHT22;19277;51.778;7.912;2023-04-09T01:49:11;22.10;69.90
32600;DHT22;19277;51.778;7.912;2023-04-09T01:51:37;22.00;69.80
32600;DHT22;19277;51.778;7.912;2023-04-09T01:54:03;22.00;69.90
32600;DHT22;19277;51.778;7.912;2023-04-09T01:56:42;22.10;70.00
32600;DHT22;19277;51.778;7.912;2023-04-09T01:59:08;22.00;70.00
32600;DHT22;19277;51.778;7.912;2023-04-09T02:04:14;22.00;69.90
32600;DHT22;19277;51.778;7.912;2023-04-09T02:09:27;22.00;70.00
32600;DHT22;19277;51.778;7.912;2023-04-09T02:11:55;22.00;69.90
32600;DHT22;19277;51.778;7.912;2023-04-09T02:14:24;22.00;70.50
32600;DHT22;19277;51.778;7.912;2023-04-09T02:16:51;22.00;69.90
32600;DHT22;19277;51.778;7.912;2023-04-09T02:19:16;22.00;69.90
32600;DHT22;19277;51.778;7.912;2023-04-09T02:21:42;22.00;70.00
32600;DHT22;19277;51.778;7.912;2023-04-09T02:24:08;22.00;70.00
32600;DHT22;19277;51.778;7.912;2023-04-09T02:26:34;22.00;70.00
32600;DHT22;19277;51.778;7.912;2023-04-09T02:29:00;21.90;70.00
32600;DHT22;19277;51.778;7.912;2023-04-09T02:31:25;22.00;70.00
32600;DHT22;19277;51.778;7.912;2023-04-09T02:33:51;22.00;70.00
32600;DHT22;19277;51.778;7.912;2023-04-09T02:36:18;21.90;70.00
32600;DHT22;19277;51.778;7.912;2023-04-09T02:38:44;21.90;70.20
32600;DHT22;19277;51.778;7.912;2023-04-09T02:41:09;21.90;70.10
32600;DHT22;19277;51.778;7.912;2023-04-09T02:43:35;21.90;70.20
32600;DHT22;19277;51.778;7.912;2023-04-09T02:46:01;21.90;70.80
32600;DHT22;19277;51.778;7.912;2023-04-09T02:48:27;21.90;70.30
32600;DHT22;19277;51.778;7.912;2023-04-09T02:50:52;21.90;70.30
32600;DHT22;19277;51.778;7.912;2023-04-09T02:53:18;21.90;70.50
32600;DHT22;19277;51.778;7.912;2023-04-09T02:55:46;21.90;70.50
32600;DHT22;19277;51.778;7.912;2023-04-09T02:58:11;21.90;70.40
32600;DHT22;19277;51.778;7.912;2023-04-09T03:00:37;21.90;70.50
32600;DHT22;19277;51.778;7.912;2023-04-09T03:03:02;21.90;70.50
32600;DHT22;19277;51.778;7.912;2023-04-09T03:05:28;21.90;70.50
32600;DHT22;19277;51.778;7.912;2023-04-09T03:07:54;21.90;70.50
32600;DHT22;19277;51.778;7.912;2023-04-09T03:10:20;21.80;70.60
32600;DHT22;19277;51.778;7.912;2023-04-09T03:12:45;21.80;70.50
32600;DHT22;19277;51.778;7.912;2023-04-09T03:15:12;21.80;70.50
32600;DHT22;19277;51.778;7.912;2023-04-09T03:17:38;21.80;70.50
32600;DHT22;19277;51.778;7.912;2023-04-09T03:20:05;21.80;70.60
32600;DHT22;19277;51.778;7.912;2023-04-09T03:22:35;21.80;70.60
32600;DHT22;19277;51.778;7.912;2023-04-09T03:25:01;21.80;70.70
32600;DHT22;19277;51.778;7.912;2023-04-09T03:27:28;21.80;70.60
32600;DHT22;19277;51.778;7.912;2023-04-09T03:29:56;21.80;70.70
32600;DHT22;19277;51.778;7.912;2023-04-09T03:32:22;21.80;70.70
32600;DHT22;19277;51.778;7.912;2023-04-09T03:34:48;21.80;70.80
32600;DHT22;19277;51.778;7.912;2023-04-09T03:37:13;21.80;70.80
32600;DHT22;19277;51.778;7.912;2023-04-09T03:39:39;21.80;70.80
32600;DHT22;19277;51.778;7.912;2023-04-09T03:42:05;21.80;70.80
32600;DHT22;19277;51.778;7.912;2023-04-09T03:44:31;21.80;70.90
32600;DHT22;19277;51.778;7.912;2023-04-09T03:46:56;21.80;70.90
32600;DHT22;19277;51.778;7.912;2023-04-09T03:49:22;21.80;71.00
32600;DHT22;19277;51.778;7.912;2023-04-09T03:51:48;21.70;71.10
32600;DHT22;19277;51.778;7.912;2023-04-09T03:54:13;21.70;71.10
32600;DHT22;19277;51.778;7.912;2023-04-09T03:56:39;21.70;71.10
32600;DHT22;19277;51.778;7.912;2023-04-09T03:59:05;21.70;71.20
32600;DHT22;19277;51.778;7.912;2023-04-09T04:01:30;21.70;71.20
32600;DHT22;19277;51.778;7.912;2023-04-09T04:03:56;21.70;71.20
32600;DHT22;19277;51.778;7.912;2023-04-09T04:06:22;21.70;71.20
32600;DHT22;19277;51.778;7.912;2023-04-09T04:08:47;21.70;71.10
32600;DHT22;19277;51.778;7.912;2023-04-09T04:11:13;21.70;71.10
32600;DHT22;19277;51.778;7.912;2023-04-09T04:13:38;21.70;71.20
32600;DHT22;19277;51.778;7.912;2023-04-09T04:16:08;21.70;71.30
32600;DHT22;19277;51.778;7.912;2023-04-09T04:18:34;21.70;71.40
32600;DHT22;19277;51.778;7.912;2023-04-09T04:21:00;21.70;71.40
32600;DHT22;19277;51.778;7.912;2023-04-09T04:23:26;21.60;71.20
32600;DHT22;19277;51.778;7.912;2023-04-09T04:25:51;21.60;71.30
32600;DHT22;19277;51.778;7.912;2023-04-09T04:28:22;21.60;71.30
32600;DHT22;19277;51.778;7.912;2023-04-09T04:30:47;21.60;71.40
32600;DHT22;19277;51.778;7.912;2023-04-09T04:33:13;21.60;71.50
32600;DHT22;19277;51.778;7.912;2023-04-09T04:35:39;21.50;71.50
32600;DHT22;19277;51.778;7.912;2023-04-09T04:38:04;21.60;71.50
32600;DHT22;19277;51.778;7.912;2023-04-09T04:40:30;21.60;71.60
32600;DHT22;19277;51.778;7.912;2023-04-09T04:42:55;21.50;71.50
32600;DHT22;19277;51.778;7.912;2023-04-09T04:45:21;21.50;71.60
32600;DHT22;19277;51.778;7.912;2023-04-09T04:47:46;21.50;71.70
32600;DHT22;19277;51.778;7.912;2023-04-09T04:50:12;21.50;71.60
32600;DHT22;19277;51.778;7.912;2023-04-09T04:52:38;21.50;71.70
32600;DHT22;19277;51.778;7.912;2023-04-09T04:55:05;21.50;71.80
32600;DHT22;19277;51.778;7.912;2023-04-09T04:57:30;21.50;71.90
32600;DHT22;19277;51.778;7.912;2023-04-09T04:59:56;21.50;71.80
32600;DHT22;19277;51.778;7.912;2023-04-09T05:02:22;21.50;72.10
32600;DHT22;19277;51.778;7.912;2023-04-09T05:04:47;21.50;72.60
32600;DHT22;19277;51.778;7.912;2023-04-09T05:07:13;21.50;72.10
32600;DHT22;19277;51.778;7.912;2023-04-09T05:09:38;21.50;72.30
32600;DHT22;19277;51.778;7.912;2023-04-09T05:12:04;21.50;72.50
32600;DHT22;19277;51.778;7.912;2023-04-09T05:14:29;21.50;72.40
32600;DHT22;19277;51.778;7.912;2023-04-09T05:16:55;21.50;72.50
32600;DHT22;19277;51.778;7.912;2023-04-09T05:19:21;21.50;72.50
32600;DHT22;19277;51.778;7.912;2023-04-09T05:21:46;21.60;72.50
32600;DHT22;19277;51.778;7.912;2023-04-09T05:24:12;21.70;72.50
32600;DHT22;19277;51.778;7.912;2023-04-09T05:26:37;21.70;72.60
32600;DHT22;19277;51.778;7.912;2023-04-09T05:29:03;21.70;72.30
32600;DHT22;19277;51.778;7.912;2023-04-09T05:31:28;21.80;71.90
32600;DHT22;19277;51.778;7.912;2023-04-09T05:33:54;21.90;71.50
32600;DHT22;19277;51.778;7.912;2023-04-09T05:36:19;21.90;71.20
32600;DHT22;19277;51.778;7.912;2023-04-09T05:38:46;22.00;71.10
32600;DHT22;19277;51.778;7.912;2023-04-09T05:41:11;22.10;70.90
32600;DHT22;19277;51.778;7.912;2023-04-09T05:43:37;22.10;70.70
32600;DHT22;19277;51.778;7.912;2023-04-09T05:46:03;22.20;70.50
32600;DHT22;19277;51.778;7.912;2023-04-09T05:48:28;22.30;70.40
32600;DHT22;19277;51.778;7.912;2023-04-09T05:50:54;22.40;70.30
32600;DHT22;19277;51.778;7.912;2023-04-09T05:53:20;22.40;70.10
32600;DHT22;19277;51.778;7.912;2023-04-09T05:55:46;22.50;69.90
32600;DHT22;19277;51.778;7.912;2023-04-09T05:58:14;22.60;69.70
32600;DHT22;19277;51.778;7.912;2023-04-09T06:00:40;22.60;69.70
32600;DHT22;19277;51.778;7.912;2023-04-09T06:03:07;22.70;69.40
32600;DHT22;19277;51.778;7.912;2023-04-09T06:05:33;22.70;69.20
32600;DHT22;19277;51.778;7.912;2023-04-09T06:07:59;22.80;69.30
32600;DHT22;19277;51.778;7.912;2023-04-09T06:10:24;22.80;69.50
32600;DHT22;19277;51.778;7.912;2023-04-09T06:12:50;22.80;69.30
32600;DHT22;19277;51.778;7.912;2023-04-09T06:15:16;22.90;69.20
32600;DHT22;19277;51.778;7.912;2023-04-09T06:17:41;22.90;69.10
32600;DHT22;19277;51.778;7.912;2023-04-09T06:20:07;23.00;69.00
32600;DHT22;19277;51.778;7.912;2023-04-09T06:22:33;23.00;69.00
32600;DHT22;19277;51.778;7.912;2023-04-09T06:24:58;23.00;68.80
32600;DHT22;19277;51.778;7.912;2023-04-09T06:27:24;23.10;68.60
32600;DHT22;19277;51.778;7.912;2023-04-09T06:29:51;23.10;68.40
32600;DHT22;19277;51.778;7.912;2023-04-09T06:32:16;23.10;68.40
32600;DHT22;19277;51.778;7.912;2023-04-09T06:34:42;23.10;68.50
32600;DHT22;19277;51.778;7.912;2023-04-09T06:37:07;23.10;68.40
32600;DHT22;19277;51.778;7.912;2023-04-09T06:39:33;23.20;68.60
32600;DHT22;19277;51.778;7.912;2023-04-09T06:41:58;23.20;68.70
32600;DHT22;19277;51.778;7.912;2023-04-09T06:44:25;23.20;68.70
32600;DHT22;19277;51.778;7.912;2023-04-09T06:46:50;23.20;69.20
32600;DHT22;19277;51.778;7.912;2023-04-09T06:49:16;23.30;68.50
32600;DHT22;19277;51.778;7.912;2023-04-09T06:51:42;23.20;68.40
32600;DHT22;19277;51.778;7.912;2023-04-09T06:54:07;23.30;68.50
32600;DHT22;19277;51.778;7.912;2023-04-09T06:56:33;23.30;68.40
32600;DHT22;19277;51.778;7.912;2023-04-09T06:58:59;23.30;68.30
32600;DHT22;19277;51.778;7.912;2023-04-09T07:01:24;23.30;68.20
32600;DHT22;19277;51.778;7.912;2023-04-09T07:03:50;23.30;68.10
32600;DHT22;19277;51.778;7.912;2023-04-09T07:06:16;23.40;68.00
32600;DHT22;19277;51.778;7.912;2023-04-09T07:08:42;23.40;67.90
32600;DHT22;19277;51.778;7.912;2023-04-09T07:11:07;23.30;67.80
32600;DHT22;19277;51.778;7.912;2023-04-09T07:13:33;23.40;67.90
32600;DHT22;19277;51.778;7.912;2023-04-09T07:15:59;23.40;68.00
32600;DHT22;19277;51.778;7.912;2023-04-09T07:18:24;23.40;68.30
32600;DHT22;19277;51.778;7.912;2023-04-09T07:20:51;23.40;68.20
32600;DHT22;19277;51.778;7.912;2023-04-09T07:23:18;23.30;68.10
32600;DHT22;19277;51.778;7.912;2023-04-09T07:25:43;23.30;68.30
32600;DHT22;19277;51.778;7.912;2023-04-09T07:28:09;23.30;68.30
32600;DHT22;19277;51.778;7.912;2023-04-09T07:30:36;23.30;68.20
32600;DHT22;19277;51.778;7.912;2023-04-09T07:33:01;23.30;68.20
32600;DHT22;19277;51.778;7.912;2023-04-09T07:35:27;23.30;68.20
32600;DHT22;19277;51.778;7.912;2023-04-09T07:37:53;23.30;68.20
32600;DHT22;19277;51.778;7.912;2023-04-09T07:40:18;23.30;68.20
32600;DHT22;19277;51.778;7.912;2023-04-09T07:42:44;23.30;68.20
32600;DHT22;19277;51.778;7.912;2023-04-09T07:45:10;23.30;68.50
32600;DHT22;19277;51.778;7.912;2023-04-09T07:47:36;23.30;68.60
32600;DHT22;19277;51.778;7.912;2023-04-09T07:50:02;23.20;68.60
32600;DHT22;19277;51.778;7.912;2023-04-09T07:52:27;23.20;68.70
32600;DHT22;19277;51.778;7.912;2023-04-09T07:54:53;23.20;69.20
32600;DHT22;19277;51.778;7.912;2023-04-09T07:57:19;23.20;68.70
32600;DHT22;19277;51.778;7.912;2023-04-09T07:59:44;23.20;68.80
32600;DHT22;19277;51.778;7.912;2023-04-09T08:02:10;23.20;68.80
32600;DHT22;19277;51.778;7.912;2023-04-09T08:04:36;23.20;69.00
32600;DHT22;19277;51.778;7.912;2023-04-09T08:07:02;23.10;68.90
32600;DHT22;19277;51.778;7.912;2023-04-09T08:09:28;23.10;69.00
32600;DHT22;19277;51.778;7.912;2023-04-09T08:11:53;23.10;69.20
32600;DHT22;19277;51.778;7.912;2023-04-09T08:14:20;23.10;69.60
32600;DHT22;19277;51.778;7.912;2023-04-09T08:16:46;23.10;68.90
32600;DHT22;19277;51.778;7.912;2023-04-09T08:19:14;23.00;68.80
32600;DHT22;19277;51.778;7.912;2023-04-09T08:21:40;23.00;68.80
32600;DHT22;19277;51.778;7.912;2023-04-09T08:24:10;23.00;68.70
32600;DHT22;19277;51.778;7.912;2023-04-09T08:26:37;22.90;68.60
32600;DHT22;19277;51.778;7.912;2023-04-09T08:29:03;22.90;68.60
32600;DHT22;19277;51.778;7.912;2023-04-09T08:31:28;22.90;68.50
32600;DHT22;19277;51.778;7.912;2023-04-09T08:33:54;22.90;68.50
32600;DHT22;19277;51.778;7.912;2023-04-09T08:36:20;22.90;68.50
32600;DHT22;19277;51.778;7.912;2023-04-09T08:38:45;22.90;68.40
32600;DHT22;19277;51.778;7.912;2023-04-09T08:41:19;22.90;68.40
32600;DHT22;19277;51.778;7.912;2023-04-09T08:43:47;22.80;68.30
32600;DHT22;19277;51.778;7.912;2023-04-09T08:46:14;22.80;68.20
32600;DHT22;19277;51.778;7.912;2023-04-09T08:48:44;22.80;68.20
32600;DHT22;19277;51.778;7.912;2023-04-09T08:51:13;22.80;68.10
32600;DHT22;19277;51.778;7.912;2023-04-09T08:53:45;22.80;68.10
32600;DHT22;19277;51.778;7.912;2023-04-09T08:56:13;22.80;68.10
32600;DHT22;19277;51.778;7.912;2023-04-09T08:58:42;22.80;68.10
32600;DHT22;19277;51.778;7.912;2023-04-09T09:01:21;22.80;68.10
32600;DHT22;19277;51.778;7.912;2023-04-09T09:03:58;22.80;68.10
32600;DHT22;19277;51.778;7.912;2023-04-09T09:06:26;22.80;68.00
32600;DHT22;19277;51.778;7.912;2023-04-09T09:09:13;22.80;68.00
32600;DHT22;19277;51.778;7.912;2023-04-09T09:11:44;22.80;68.00
32600;DHT22;19277;51.778;7.912;2023-04-09T09:14:19;22.80;67.90
32600;DHT22;19277;51.778;7.912;2023-04-09T09:21:54;22.80;67.90
32600;DHT22;19277;51.778;7.912;2023-04-09T09:24:21;22.80;67.90
32600;DHT22;19277;51.778;7.912;2023-04-09T09:26:46;22.80;68.00
32600;DHT22;19277;51.778;7.912;2023-04-09T09:29:12;22.80;68.40
32600;DHT22;19277;51.778;7.912;2023-04-09T09:31:48;22.80;68.70
32600;DHT22;19277;51.778;7.912;2023-04-09T09:34:15;22.80;68.80
32600;DHT22;19277;51.778;7.912;2023-04-09T09:36:41;22.80;68.90
32600;DHT22;19277;51.778;7.912;2023-04-09T09:39:08;22.80;68.90
32600;DHT22;19277;51.778;7.912;2023-04-09T09:41:38;22.80;69.00
32600;DHT22;19277;51.778;7.912;2023-04-09T09:44:06;22.80;69.00
32600;DHT22;19277;51.778;7.912;2023-04-09T09:46:36;22.90;69.10
32600;DHT22;19277;51.778;7.912;2023-04-09T09:49:03;22.90;69.20
32600;DHT22;19277;51.778;7.912;2023-04-09T09:51:31;22.90;69.20
32600;DHT22;19277;51.778;7.912;2023-04-09T09:53:57;22.90;69.20
32600;DHT22;19277;51.778;7.912;2023-04-09T09:56:27;22.90;69.20
32600;DHT22;19277;51.778;7.912;2023-04-09T10:01:28;22.90;69.50
32600;DHT22;19277;51.778;7.912;2023-04-09T10:03:55;22.90;69.80
32600;DHT22;19277;51.778;7.912;2023-04-09T10:06:24;23.00;69.80
32600;DHT22;19277;51.778;7.912;2023-04-09T10:08:51;23.00;69.80
32600;DHT22;19277;51.778;7.912;2023-04-09T10:11:18;23.00;69.80
32600;DHT22;19277;51.778;7.912;2023-04-09T10:14:05;23.00;69.90
32600;DHT22;19277;51.778;7.912;2023-04-09T10:16:31;23.00;70.10
32600;DHT22;19277;51.778;7.912;2023-04-09T10:18:58;23.10;70.20
32600;DHT22;19277;51.778;7.912;2023-04-09T10:21:49;23.10;70.20
32600;DHT22;19277;51.778;7.912;2023-04-09T10:24:18;23.10;70.30
32600;DHT22;19277;51.778;7.912;2023-04-09T10:26:43;23.10;70.50
32600;DHT22;19277;51.778;7.912;2023-04-09T10:29:13;23.10;70.50
32600;DHT22;19277;51.778;7.912;2023-04-09T10:32:05;22.90;63.00
32600;DHT22;19277;51.778;7.912;2023-04-09T10:34:36;22.70;63.30
32600;DHT22;19277;51.778;7.912;2023-04-09T10:37:02;22.60;61.60
32600;DHT22;19277;51.778;7.912;2023-04-09T10:39:31;22.50;62.40
32600;DHT22;19277;51.778;7.912;2023-04-09T10:42:00;22.30;61.30
32600;DHT22;19277;51.778;7.912;2023-04-09T10:44:31;22.20;61.60
32600;DHT22;19277;51.778;7.912;2023-04-09T10:46:57;22.10;61.60
32600;DHT22;19277;51.778;7.912;2023-04-09T10:49:23;22.00;61.80
32600;DHT22;19277;51.778;7.912;2023-04-09T10:52:02;22.00;61.70
32600;DHT22;19277;51.778;7.912;2023-04-09T10:57:13;22.00;60.90
32600;DHT22;19277;51.778;7.912;2023-04-09T10:59:50;22.10;60.90
32600;DHT22;19277;51.778;7.912;2023-04-09T11:05:25;22.10;59.90
32600;DHT22;19277;51.778;7.912;2023-04-09T11:10:26;22.20;59.50
32600;DHT22;19277;51.778;7.912;2023-04-09T11:12:52;22.20;59.70
32600;DHT22;19277;51.778;7.912;2023-04-09T11:15:19;22.10;59.60
32600;DHT22;19277;51.778;7.912;2023-04-09T11:17:46;22.10;59.50
32600;DHT22;19277;51.778;7.912;2023-04-09T11:20:13;22.20;58.90
32600;DHT22;19277;51.778;7.912;2023-04-09T11:22:39;22.20;58.80
32600;DHT22;19277;51.778;7.912;2023-04-09T11:25:05;22.30;58.90
32600;DHT22;19277;51.778;7.912;2023-04-09T11:27:36;22.30;59.80
32600;DHT22;19277;51.778;7.912;2023-04-09T11:30:02;22.30;59.90
32600;DHT22;19277;51.778;7.912;2023-04-09T11:32:32;22.30;58.50
32600;DHT22;19277;51.778;7.912;2023-04-09T11:34:57;22.30;58.60
32600;DHT22;19277;51.778;7.912;2023-04-09T11:37:23;22.30;58.00
32600;DHT22;19277;51.778;7.912;2023-04-09T11:39:49;22.20;58.50
32600;DHT22;19277;51.778;7.912;2023-04-09T11:42:22;22.30;58.00
32600;DHT22;19277;51.778;7.912;2023-04-09T11:44:48;22.30;58.00
32600;DHT22;19277;51.778;7.912;2023-04-09T11:47:14;22.30;58.10
32600;DHT22;19277;51.778;7.912;2023-04-09T11:49:44;22.30;58.20
32600;DHT22;19277;51.778;7.912;2023-04-09T11:52:12;22.30;58.00
32600;DHT22;19277;51.778;7.912;2023-04-09T11:54:37;22.30;58.00
32600;DHT22;19277;51.778;7.912;2023-04-09T11:57:03;22.20;58.70
32600;DHT22;19277;51.778;7.912;2023-04-09T11:59:29;22.20;58.60
32600;DHT22;19277;51.778;7.912;2023-04-09T12:01:58;22.10;58.40
32600;DHT22;19277;51.778;7.912;2023-04-09T12:04:24;22.10;56.00
32600;DHT22;19277;51.778;7.912;2023-04-09T12:06:54;22.10;57.50
32600;DHT22;19277;51.778;7.912;2023-04-09T12:09:20;22.10;57.80
32600;DHT22;19277;51.778;7.912;2023-04-09T12:11:46;22.10;57.30
32600;DHT22;19277;51.778;7.912;2023-04-09T12:14:14;22.10;58.50
32600;DHT22;19277;51.778;7.912;2023-04-09T12:16:41;22.00;58.60
32600;DHT22;19277;51.778;7.912;2023-04-09T12:19:12;22.10;58.00
32600;DHT22;19277;51.778;7.912;2023-04-09T12:21:47;22.10;58.80
32600;DHT22;19277;51.778;7.912;2023-04-09T12:24:15;22.20;58.80
32600;DHT22;19277;51.778;7.912;2023-04-09T12:26:41;22.10;59.20
32600;DHT22;19277;51.778;7.912;2023-04-09T12:29:07;22.20;58.10
32600;DHT22;19277;51.778;7.912;2023-04-09T12:31:33;22.20;57.00
32600;DHT22;19277;51.778;7.912;2023-04-09T12:33:58;22.30;57.20
32600;DHT22;19277;51.778;7.912;2023-04-09T12:36:24;22.20;56.60
32600;DHT22;19277;51.778;7.912;2023-04-09T12:38:50;22.20;57.30
32600;DHT22;19277;51.778;7.912;2023-04-09T12:41:16;22.20;56.80
32600;DHT22;19277;51.778;7.912;2023-04-09T12:43:41;22.10;56.40
32600;DHT22;19277;51.778;7.912;2023-04-09T12:46:11;22.10;56.00
32600;DHT22;19277;51.778;7.912;2023-04-09T12:48:37;22.10;57.30
32600;DHT22;19277;51.778;7.912;2023-04-09T12:51:03;22.10;55.80
32600;DHT22;19277;51.778;7.912;2023-04-09T12:53:28;22.10;55.00
32600;DHT22;19277;51.778;7.912;2023-04-09T12:55:54;22.10;55.30
32600;DHT22;19277;51.778;7.912;2023-04-09T12:58:20;22.10;55.70
32600;DHT22;19277;51.778;7.912;2023-04-09T13:00:46;22.00;55.50
32600;DHT22;19277;51.778;7.912;2023-04-09T13:03:11;21.90;56.20
32600;DHT22;19277;51.778;7.912;2023-04-09T13:05:37;21.90;56.00
32600;DHT22;19277;51.778;7.912;2023-04-09T13:08:02;21.90;56.20
32600;DHT22;19277;51.778;7.912;2023-04-09T13:10:29;21.90;56.40
32600;DHT22;19277;51.778;7.912;2023-04-09T13:12:55;21.90;55.70
32600;DHT22;19277;51.778;7.912;2023-04-09T13:15:21;21.90;55.20
32600;DHT22;19277;51.778;7.912;2023-04-09T13:17:47;21.90;55.50
32600;DHT22;19277;51.778;7.912;2023-04-09T13:20:12;21.90;55.10
32600;DHT22;19277;51.778;7.912;2023-04-09T13:22:38;22.00;56.30
32600;DHT22;19277;51.778;7.912;2023-04-09T13:25:04;22.00;55.30
32600;DHT22;19277;51.778;7.912;2023-04-09T13:27:30;22.10;55.80
32600;DHT22;19277;51.778;7.912;2023-04-09T13:29:55;22.10;54.60
32600;DHT22;19277;51.778;7.912;2023-04-09T13:32:22;22.10;55.20
32600;DHT22;19277;51.778;7.912;2023-04-09T13:34:49;22.10;55.60
32600;DHT22;19277;51.778;7.912;2023-04-09T13:37:15;22.10;56.10
32600;DHT22;19277;51.778;7.912;2023-04-09T13:39:41;22.10;56.00
32600;DHT22;19277;51.778;7.912;2023-04-09T13:42:07;22.00;56.40
32600;DHT22;19277;51.778;7.912;2023-04-09T13:44:32;22.00;56.70
32600;DHT22;19277;51.778;7.912;2023-04-09T13:46:58;22.00;56.00
32600;DHT22;19277;51.778;7.912;2023-04-09T13:49:23;22.10;54.70
32600;DHT22;19277;51.778;7.912;2023-04-09T13:51:51;22.10;55.90
32600;DHT22;19277;51.778;7.912;2023-04-09T13:54:16;22.10;56.20
32600;DHT22;19277;51.778;7.912;2023-04-09T13:56:43;22.00;56.30
32600;DHT22;19277;51.778;7.912;2023-04-09T13:59:08;22.10;54.70
32600;DHT22;19277;51.778;7.912;2023-04-09T14:01:34;22.10;55.80
32600;DHT22;19277;51.778;7.912;2023-04-09T14:04:00;22.10;55.30
32600;DHT22;19277;51.778;7.912;2023-04-09T14:06:26;22.00;55.90
32600;DHT22;19277;51.778;7.912;2023-04-09T14:08:51;22.00;56.00
32600;DHT22;19277;51.778;7.912;2023-04-09T14:11:17;22.00;56.60
32600;DHT22;19277;51.778;7.912;2023-04-09T14:13:43;22.00;55.40
32600;DHT22;19277;51.778;7.912;2023-04-09T14:16:08;22.00;55.80
32600;DHT22;19277;51.778;7.912;2023-04-09T14:18:34;21.90;56.50
32600;DHT22;19277;51.778;7.912;2023-04-09T14:21:00;21.90;56.80
32600;DHT22;19277;51.778;7.912;2023-04-09T14:23:25;22.00;56.40
32600;DHT22;19277;51.778;7.912;2023-04-09T14:25:51;22.00;56.40
32600;DHT22;19277;51.778;7.912;2023-04-09T14:28:17;22.00;56.20
32600;DHT22;19277;51.778;7.912;2023-04-09T14:30:43;21.90;56.10
32600;DHT22;19277;51.778;7.912;2023-04-09T14:33:09;22.00;56.10
32600;DHT22;19277;51.778;7.912;2023-04-09T14:35:34;22.00;55.60
32600;DHT22;19277;51.778;7.912;2023-04-09T14:38:00;22.00;56.10
32600;DHT22;19277;51.778;7.912;2023-04-09T14:40:29;22.00;55.50
32600;DHT22;19277;51.778;7.912;2023-04-09T14:42:56;22.00;55.20
32600;DHT22;19277;51.778;7.912;2023-04-09T14:45:21;22.00;56.00
32600;DHT22;19277;51.778;7.912;2023-04-09T14:47:47;22.00;55.80
32600;DHT22;19277;51.778;7.912;2023-04-09T14:50:12;22.00;55.70
32600;DHT22;19277;51.778;7.912;2023-04-09T14:52:38;22.00;56.20
32600;DHT22;19277;51.778;7.912;2023-04-09T14:55:04;21.90;55.70
32600;DHT22;19277;51.778;7.912;2023-04-09T14:57:30;21.90;56.00
32600;DHT22;19277;51.778;7.912;2023-04-09T14:59:56;21.90;55.70
32600;DHT22;19277;51.778;7.912;2023-04-09T15:02:21;21.90;54.70
32600;DHT22;19277;51.778;7.912;2023-04-09T15:04:47;21.90;54.80
32600;DHT22;19277;51.778;7.912;2023-04-09T15:07:12;21.80;55.80
32600;DHT22;19277;51.778;7.912;2023-04-09T15:09:38;21.80;56.00
32600;DHT22;19277;51.778;7.912;2023-04-09T15:12:03;21.80;55.80
32600;DHT22;19277;51.778;7.912;2023-04-09T15:14:30;21.80;55.90
32600;DHT22;19277;51.778;7.912;2023-04-09T15:16:55;21.80;55.90
32600;DHT22;19277;51.778;7.912;2023-04-09T15:19:21;21.80;55.70
32600;DHT22;19277;51.778;7.912;2023-04-09T15:21:46;21.90;56.10
32600;DHT22;19277;51.778;7.912;2023-04-09T15:24:12;21.90;56.40
32600;DHT22;19277;51.778;7.912;2023-04-09T15:26:37;21.90;55.80
32600;DHT22;19277;51.778;7.912;2023-04-09T15:29:06;21.90;55.40
32600;DHT22;19277;51.778;7.912;2023-04-09T15:31:32;21.90;54.70
32600;DHT22;19277;51.778;7.912;2023-04-09T15:33:58;21.90;55.30
32600;DHT22;19277;51.778;7.912;2023-04-09T15:36:23;21.90;55.20
32600;DHT22;19277;51.778;7.912;2023-04-09T15:38:52;21.90;55.10
32600;DHT22;19277;51.778;7.912;2023-04-09T15:41:18;21.90;55.40
32600;DHT22;19277;51.778;7.912;2023-04-09T15:43:45;21.90;54.40
32600;DHT22;19277;51.778;7.912;2023-04-09T15:46:11;21.90;54.60
32600;DHT22;19277;51.778;7.912;2023-04-09T15:48:37;21.80;54.60
32600;DHT22;19277;51.778;7.912;2023-04-09T15:51:02;21.90;54.80
32600;DHT22;19277;51.778;7.912;2023-04-09T15:53:29;21.90;54.70
32600;DHT22;19277;51.778;7.912;2023-04-09T15:55:55;21.80;54.10
32600;DHT22;19277;51.778;7.912;2023-04-09T15:58:22;21.80;55.30